Time;durP1;ratioP1;P1;durP2;ratioP2;P2;SDS_P1;SDS_P2;PMS_P1;PMS_P2;Temp;Humidity;BMP_temperature;BMP_pressure;BME280_temperature;BME280_humidity;BME280_pressure;Samples;Min_cycle;Max_cycle;Signal;HPM_P1;HPM_P2
2022/09/15 00:00:18;;;;;;;0.35;0.20;;;12.70;99.90;;;;;;4980829;28;20049;-89
2022/09/15 00:02:44;;;;;;;0.27;0.27;;;12.70;99.90;;;;;;4996460;28;20136;-89
2022/09/15 00:05:11;;;;;;;0.10;0.10;;;12.70;99.90;;;;;;4964724;28;20054;-90
2022/09/15 00:07:37;;;;;;;0.15;0.15;;;12.70;99.90;;;;;;4979946;28;20050;-90
2022/09/15 00:10:05;;;;;;;0.40;0.40;;;12.70;99.90;;;;;;4980725;28;20048;-90
2022/09/15 00:12:32;;;;;;;0.63;0.30;;;12.70;99.90;;;;;;5013678;28;20052;-90
2022/09/15 00:14:58;;;;;;;0.38;0.38;;;12.70;99.90;;;;;;4980597;28;20054;-90
2022/09/15 00:17:24;;;;;;;0.32;0.28;;;12.70;99.90;;;;;;4996860;28;20100;-90
2022/09/15 00:19:50;;;;;;;0.70;0.70;;;12.80;99.90;;;;;;4980115;28;20050;-90
2022/09/15 00:22:17;;;;;;;0.35;0.35;;;12.80;99.90;;;;;;4996742;28;20116;-90
2022/09/15 00:24:42;;;;;;;0.30;0.30;;;12.80;99.90;;;;;;4996155;28;20085;-89
2022/09/15 00:27:08;;;;;;;0.37;0.30;;;12.90;99.90;;;;;;4996572;28;20081;-90
2022/09/15 00:29:34;;;;;;;0.73;0.50;;;13.00;99.90;;;;;;4996057;28;20122;-90
2022/09/15 00:32:00;;;;;;;0.25;0.22;;;13.00;99.90;;;;;;4996509;28;20416;-90
2022/09/15 00:34:26;;;;;;;0.82;0.50;;;13.00;99.90;;;;;;4980316;28;20046;-90
2022/09/15 00:36:52;;;;;;;0.33;0.27;;;13.10;99.90;;;;;;4979878;28;20400;-90
2022/09/15 00:39:18;;;;;;;0.30;0.30;;;13.10;99.90;;;;;;4996787;28;20108;-90
2022/09/15 00:41:43;;;;;;;0.70;0.47;;;13.20;99.90;;;;;;4963857;28;20132;-90
2022/09/15 00:44:15;;;;;;;0.53;0.20;;;13.20;99.90;;;;;;4996293;28;20139;-90
2022/09/15 00:46:44;;;;;;;0.30;0.28;;;13.30;99.90;;;;;;5013592;28;20077;-90
2022/09/15 00:49:27;;;;;;;0.43;0.38;;;13.50;99.90;;;;;;4980228;28;20052;-90
2022/09/15 00:52:16;;;;;;;0.70;0.35;;;13.40;99.90;;;;;;4979432;28;20046;-90
2022/09/15 00:54:52;;;;;;;0.32;0.30;;;13.50;99.90;;;;;;4979786;28;20407;-90
2022/09/15 00:57:27;;;;;;;0.30;0.20;;;13.50;99.90;;;;;;4996289;28;20211;-90
2022/09/15 00:59:56;;;;;;;0.22;0.22;;;13.60;99.90;;;;;;4995784;28;20081;-90
2022/09/15 01:02:25;;;;;;;0.35;0.35;;;13.60;99.90;;;;;;4996183;28;20184;-90
2022/09/15 01:04:52;;;;;;;0.52;0.45;;;13.70;99.90;;;;;;4995205;28;20045;-90
2022/09/15 01:07:25;;;;;;;0.17;0.17;;;13.70;99.90;;;;;;4963348;28;20499;-90
2022/09/15 01:10:01;;;;;;;0.65;0.60;;;13.70;99.90;;;;;;4994868;28;20467;-90
2022/09/15 01:12:27;;;;;;;0.17;0.17;;;13.70;99.90;;;;;;4995731;28;20132;-90
2022/09/15 01:14:53;;;;;;;0.15;0.15;;;13.80;99.90;;;;;;4979197;28;20049;-90
2022/09/15 01:17:31;;;;;;;0.30;0.20;;;13.70;99.90;;;;;;4979605;28;20045;-90
2022/09/15 01:20:11;;;;;;;0.80;0.45;;;13.80;99.90;;;;;;4995363;28;20053;-90
2022/09/15 01:23:28;;;;;;;0.85;0.30;;;13.80;99.90;;;;;;4979687;28;20085;-90
2022/09/15 01:26:47;;;;;;;1.00;0.43;;;13.80;99.90;;;;;;4962629;28;20057;-90
2022/09/15 01:29:31;;;;;;;;;;;13.80;99.90;;;;;;4917880;29;20095;-90
2022/09/15 01:35:21;;;;;;;0.22;0.20;;;13.80;99.90;;;;;;4995250;28;20059;-90
2022/09/15 01:38:03;;;;;;;0.63;0.38;;;13.80;99.90;;;;;;4971700;28;20068;-90
2022/09/15 01:40:34;;;;;;;0.35;0.25;;;13.80;99.90;;;;;;4979442;28;20526;-90
2022/09/15 01:43:02;;;;;;;1.70;0.30;;;13.80;99.90;;;;;;4978789;28;20370;-90
2022/09/15 01:45:33;;;;;;;0.28;0.20;;;13.80;99.90;;;;;;4995784;28;20085;-90
2022/09/15 01:48:01;;;;;;;0.22;0.20;;;13.90;99.90;;;;;;4995237;28;20404;-90
2022/09/15 01:50:44;;;;;;;0.80;0.35;;;13.90;99.90;;;;;;4980653;28;20088;-90
2022/09/15 01:53:14;;;;;;;0.10;0.10;;;13.80;99.90;;;;;;5001580;28;20046;-90
2022/09/15 01:55:45;;;;;;;0.40;0.40;;;13.90;99.90;;;;;;4995928;28;20463;-90
2022/09/15 01:58:11;;;;;;;0.30;0.30;;;13.80;99.90;;;;;;5001182;28;20049;-90
2022/09/15 02:00:41;;;;;;;0.40;0.40;;;13.90;99.90;;;;;;4948288;28;20477;-90
2022/09/15 02:03:33;;;;;;;0.40;0.40;;;13.90;99.90;;;;;;4995108;28;20076;-90
2022/09/15 02:06:14;;;;;;;0.47;0.32;;;13.90;99.90;;;;;;4995146;28;20046;-90
2022/09/15 02:08:51;;;;;;;1.70;0.45;;;13.90;99.90;;;;;;4979260;28;20050;-90
2022/09/15 02:11:24;;;;;;;0.47;0.20;;;13.90;99.90;;;;;;4979123;28;20050;-90
2022/09/15 02:13:56;;;;;;;2.13;0.75;;;13.90;99.90;;;;;;4994995;28;20492;-90
2022/09/15 02:16:28;;;;;;;0.25;0.15;;;13.90;99.90;;;;;;5012699;28;20053;-90
2022/09/15 02:19:10;;;;;;;0.08;0.03;;;13.80;99.90;;;;;;4979115;28;20099;-90
2022/09/15 02:21:47;;;;;;;0.32;0.20;;;13.90;99.90;;;;;;4983973;28;20103;-90
2022/09/15 02:24:19;;;;;;;0.32;0.17;;;13.90;99.90;;;;;;5002600;28;20045;-90
2022/09/15 02:26:48;;;;;;;0.75;0.40;;;13.90;99.90;;;;;;4982776;28;20054;-89
2022/09/15 02:29:18;;;;;;;0.32;0.10;;;13.90;99.90;;;;;;4982693;28;20149;-90
2022/09/15 02:31:45;;;;;;;0.20;0.15;;;13.90;99.90;;;;;;4998601;28;20046;-90
2022/09/15 02:34:23;;;;;;;0.40;0.40;;;13.90;99.90;;;;;;4982429;28;20104;-90
2022/09/15 02:36:51;;;;;;;0.00;0.00;;;13.80;99.90;;;;;;4981697;28;20045;-90
2022/09/15 02:39:20;;;;;;;0.10;0.08;;;13.80;99.90;;;;;;4998553;28;20042;-90
2022/09/15 02:41:47;;;;;;;0.10;0.10;;;13.90;99.90;;;;;;4982001;28;20129;-90
2022/09/15 02:44:13;;;;;;;0.20;0.10;;;13.90;99.90;;;;;;5015757;28;20554;-90
2022/09/15 02:46:40;;;;;;;0.10;0.10;;;13.80;99.90;;;;;;4998612;28;20057;-90
2022/09/15 02:49:06;;;;;;;0.00;0.00;;;13.90;99.90;;;;;;4997903;28;20045;-91
2022/09/15 02:51:32;;;;;;;0.15;0.15;;;13.90;99.90;;;;;;4982044;28;20061;-91
2022/09/15 02:53:58;;;;;;;0.25;0.25;;;13.90;99.90;;;;;;4981913;28;20055;-91
2022/09/15 02:56:24;;;;;;;0.10;0.10;;;13.90;99.90;;;;;;4998395;28;20041;-90
2022/09/15 02:58:50;;;;;;;0.20;0.10;;;13.90;99.90;;;;;;4981817;28;20415;-91
2022/09/15 03:01:16;;;;;;;0.00;0.00;;;13.90;99.90;;;;;;4998109;28;20475;-91
2022/09/15 03:03:45;;;;;;;0.00;0.00;;;13.90;99.90;;;;;;4998110;28;20046;-91
2022/09/15 03:06:15;;;;;;;0.10;0.10;;;13.80;99.90;;;;;;4981444;28;20116;-90
2022/09/15 03:08:52;;;;;;;0.10;0.10;;;13.80;99.90;;;;;;4981927;28;20424;-90
2022/09/15 03:11:20;;;;;;;0.22;0.00;;;13.80;99.90;;;;;;4982000;28;20161;-91
2022/09/15 03:13:47;;;;;;;0.03;0.00;;;13.80;99.90;;;;;;5015122;28;20049;-90
2022/09/15 03:16:15;;;;;;;0.00;0.00;;;13.80;99.90;;;;;;4997550;28;20049;-90
2022/09/15 03:18:41;;;;;;;0.20;0.20;;;13.80;99.90;;;;;;4981562;28;20096;-90
2022/09/15 03:21:08;;;;;;;0.00;0.00;;;13.80;99.90;;;;;;4997420;28;20054;-91
2022/09/15 03:23:34;;;;;;;0.10;0.10;;;13.80;99.90;;;;;;4997765;28;20060;-90
2022/09/15 03:26:01;;;;;;;0.00;0.00;;;13.80;99.90;;;;;;4997295;28;20049;-90
2022/09/15 03:28:26;;;;;;;0.00;0.00;;;13.80;99.90;;;;;;4997610;28;20042;-90
2022/09/15 03:30:53;;;;;;;0.20;0.10;;;13.80;99.90;;;;;;4981491;28;20049;-90
2022/09/15 03:33:19;;;;;;;;;;;13.80;99.90;;;;;;4980918;28;20392;-90
2022/09/15 03:35:49;;;;;;;0.00;0.00;;;13.80;99.90;;;;;;4981311;28;20020;-90
2022/09/15 03:38:15;;;;;;;0.10;0.10;;;13.80;99.90;;;;;;4980861;28;20144;-90
2022/09/15 03:40:42;;;;;;;0.00;0.00;;;13.80;99.90;;;;;;4997435;28;20400;-90
2022/09/15 03:43:11;;;;;;;0.52;0.17;;;13.80;99.90;;;;;;5013941;28;20045;-90
2022/09/15 03:45:37;;;;;;;0.00;0.00;;;13.70;99.90;;;;;;4997326;28;20103;-90
2022/09/15 03:48:04;;;;;;;0.00;0.00;;;13.80;99.90;;;;;;4996791;28;20042;-90
2022/09/15 03:50:31;;;;;;;0.00;0.00;;;13.80;99.90;;;;;;4980617;28;20057;-90
2022/09/15 03:52:58;;;;;;;;;;;13.70;99.90;;;;;;4964722;28;20507;-90
2022/09/15 03:55:24;;;;;;;0.00;0.00;;;13.70;99.90;;;;;;4997330;28;20265;-90
2022/09/15 03:57:49;;;;;;;0.00;0.00;;;13.70;99.90;;;;;;4981284;28;20064;-90
2022/09/15 04:00:15;;;;;;;0.90;0.10;;;13.70;99.90;;;;;;4964432;28;20049;-90
2022/09/15 04:02:41;;;;;;;0.00;0.00;;;13.70;99.90;;;;;;4996916;28;20041;-90
2022/09/15 04:05:07;;;;;;;0.00;0.00;;;13.70;99.90;;;;;;4980294;28;20389;-90
2022/09/15 04:07:33;;;;;;;0.00;0.00;;;13.70;99.90;;;;;;5014189;28;20057;-90
2022/09/15 04:09:59;;;;;;;0.20;0.20;;;13.70;99.90;;;;;;4980320;28;20385;-90
2022/09/15 04:12:25;;;;;;;;;;;13.70;99.90;;;;;;4981332;28;20100;-90
2022/09/15 04:14:52;;;;;;;0.00;0.00;;;13.60;99.90;;;;;;4996612;28;19929;-90
2022/09/15 04:17:18;;;;;;;0.00;0.00;;;13.70;99.90;;;;;;4964410;28;20130;-90
2022/09/15 04:19:44;;;;;;;0.32;0.00;;;13.60;99.90;;;;;;4996951;28;20042;-90
2022/09/15 04:22:10;;;;;;;0.03;0.00;;;13.60;99.90;;;;;;4979986;28;20046;-90
2022/09/15 04:24:35;;;;;;;0.17;0.17;;;13.60;99.90;;;;;;4988937;28;20284;-90
2022/09/15 04:27:01;;;;;;;0.00;0.00;;;13.60;99.90;;;;;;4994408;28;20128;-90
2022/09/15 04:29:27;;;;;;;0.10;0.10;;;13.50;99.90;;;;;;4964560;28;20046;-91
2022/09/15 04:31:53;;;;;;;0.00;0.00;;;13.50;99.90;;;;;;4984339;28;20050;-90
2022/09/15 04:34:18;;;;;;;0.00;0.00;;;13.50;99.90;;;;;;5014164;28;20127;-90
2022/09/15 04:36:45;;;;;;;0.00;0.00;;;13.50;99.90;;;;;;4996341;28;20100;-90
2022/09/15 04:39:11;;;;;;;0.20;0.00;;;13.50;99.90;;;;;;4995989;28;20050;-90
2022/09/15 04:41:36;;;;;;;0.00;0.00;;;13.40;99.90;;;;;;4980250;28;20056;-90
2022/09/15 04:44:03;;;;;;;0.00;0.00;;;13.40;99.90;;;;;;4996034;28;20053;-90
2022/09/15 04:46:28;;;;;;;0.00;0.00;;;13.30;99.90;;;;;;4996086;28;20061;-90
2022/09/15 04:48:54;;;;;;;0.03;0.03;;;13.30;99.90;;;;;;4995985;28;20048;-90
2022/09/15 04:51:21;;;;;;;0.00;0.00;;;13.30;99.90;;;;;;4979440;28;20297;-90
2022/09/15 04:53:47;;;;;;;0.00;0.00;;;13.20;99.90;;;;;;5013467;28;20100;-90
2022/09/15 04:56:16;;;;;;;0.00;0.00;;;13.20;99.90;;;;;;4982709;28;20053;-90
2022/09/15 04:58:51;;;;;;;0.00;0.00;;;13.20;99.90;;;;;;5013829;28;20052;-90
2022/09/15 05:01:21;;;;;;;0.13;0.13;;;13.20;99.90;;;;;;4995678;28;20046;-90
2022/09/15 05:03:48;;;;;;;0.10;0.10;;;13.20;99.90;;;;;;5013275;28;20046;-90
2022/09/15 05:06:19;;;;;;;0.00;0.00;;;13.30;99.90;;;;;;4995479;28;20188;-90
2022/09/15 05:08:50;;;;;;;0.45;0.10;;;13.20;99.90;;;;;;4979714;28;20049;-90
2022/09/15 05:11:17;;;;;;;0.00;0.00;;;13.20;99.90;;;;;;4995605;28;20128;-90
2022/09/15 05:13:43;;;;;;;0.30;0.10;;;13.20;99.90;;;;;;4979392;28;20042;-90
2022/09/15 05:16:13;;;;;;;0.00;0.00;;;13.20;99.90;;;;;;4979306;28;20053;-90
2022/09/15 05:18:40;;;;;;;0.00;0.00;;;13.20;99.90;;;;;;4963948;28;20111;-90
2022/09/15 05:21:07;;;;;;;0.00;0.00;;;13.20;99.90;;;;;;4995832;28;20096;-89
2022/09/15 05:23:34;;;;;;;0.00;0.00;;;13.20;99.90;;;;;;4996007;28;20132;-90
2022/09/15 05:26:00;;;;;;;;;;;13.20;99.90;;;;;;4996083;28;20140;-90
2022/09/15 05:28:27;;;;;;;0.22;0.00;;;13.20;99.90;;;;;;4995045;28;19929;-90
2022/09/15 05:30:54;;;;;;;0.00;0.00;;;13.20;99.90;;;;;;4995894;28;20064;-90
2022/09/15 05:33:21;;;;;;;0.22;0.22;;;13.20;99.90;;;;;;4978830;28;20042;-90
2022/09/15 05:35:51;;;;;;;0.00;0.00;;;13.20;99.90;;;;;;4979597;28;20100;-90
2022/09/15 05:38:17;;;;;;;0.00;0.00;;;13.20;99.90;;;;;;4995098;28;20041;-89
2022/09/15 05:40:42;;;;;;;0.75;0.47;;;13.20;99.90;;;;;;4995512;28;20046;-90
2022/09/15 05:43:08;;;;;;;0.07;0.07;;;13.20;99.90;;;;;;4963095;28;20050;-90
2022/09/15 05:45:34;;;;;;;0.00;0.00;;;13.20;99.90;;;;;;4963046;28;20049;-91
2022/09/15 05:47:59;;;;;;;0.00;0.00;;;13.20;99.90;;;;;;4995549;28;20046;-90
2022/09/15 05:50:25;;;;;;;0.00;0.00;;;13.20;99.90;;;;;;4979054;28;20038;-90
2022/09/15 05:52:51;;;;;;;0.00;0.00;;;13.20;99.90;;;;;;4947306;28;20113;-90
2022/09/15 05:55:17;;;;;;;0.00;0.00;;;13.20;99.90;;;;;;4980443;28;20447;-90
2022/09/15 05:57:43;;;;;;;0.10;0.10;;;13.20;99.90;;;;;;4951058;28;20046;-90
2022/09/15 06:00:10;;;;;;;0.10;0.03;;;13.30;99.90;;;;;;4999435;28;20416;-90
2022/09/15 06:02:35;;;;;;;0.00;0.00;;;13.30;99.90;;;;;;4982294;28;20512;-90
2022/09/15 06:05:02;;;;;;;0.00;0.00;;;13.40;99.90;;;;;;4999067;28;20050;-89
2022/09/15 06:07:28;;;;;;;0.10;0.00;;;13.60;99.90;;;;;;4982423;28;20050;-90
2022/09/15 06:09:54;;;;;;;0.07;0.07;;;13.70;99.90;;;;;;4982906;28;20064;-90
2022/09/15 06:12:20;;;;;;;0.00;0.00;;;13.80;99.90;;;;;;4966111;28;20069;-90
2022/09/15 06:14:49;;;;;;;0.00;0.00;;;13.90;99.90;;;;;;4966772;28;20052;-90
2022/09/15 06:17:16;;;;;;;0.40;0.20;;;14.00;99.90;;;;;;4983038;28;20399;-90
2022/09/15 06:19:42;;;;;;;0.08;0.00;;;14.10;99.90;;;;;;4999555;28;20149;-90
2022/09/15 06:22:07;;;;;;;0.00;0.00;;;14.20;99.90;;;;;;4982927;28;20053;-90
2022/09/15 06:24:33;;;;;;;0.00;0.00;;;14.30;99.90;;;;;;4982117;28;20061;-90
2022/09/15 06:26:59;;;;;;;0.00;0.00;;;14.40;99.90;;;;;;4982378;28;20129;-90
2022/09/15 06:29:25;;;;;;;0.00;0.00;;;14.40;99.90;;;;;;4998130;28;20539;-88
2022/09/15 06:31:50;;;;;;;0.00;0.00;;;14.30;99.90;;;;;;5016018;28;20480;-88
2022/09/15 06:34:16;;;;;;;0.00;0.00;;;14.30;99.90;;;;;;4982535;28;20046;-88
2022/09/15 06:36:42;;;;;;;0.00;0.00;;;14.20;99.90;;;;;;4982418;28;20068;-88
2022/09/15 06:39:08;;;;;;;0.00;0.00;;;14.20;99.90;;;;;;4982568;28;20490;-88
2022/09/15 06:41:34;;;;;;;0.00;0.00;;;14.20;99.90;;;;;;4982092;28;20057;-88
2022/09/15 06:44:00;;;;;;;0.00;0.00;;;14.20;99.90;;;;;;4982076;28;20058;-88
2022/09/15 06:46:27;;;;;;;0.00;0.00;;;14.20;99.90;;;;;;4982084;28;20129;-88
2022/09/15 06:48:53;;;;;;;0.00;0.00;;;14.30;99.90;;;;;;4998782;28;20049;-88
2022/09/15 06:51:21;;;;;;;0.10;0.10;;;14.30;99.90;;;;;;4998017;28;20385;-90
2022/09/15 06:53:48;;;;;;;0.10;0.10;;;14.50;99.90;;;;;;4997932;28;20046;-88
2022/09/15 06:56:16;;;;;;;0.00;0.00;;;14.70;99.90;;;;;;4998296;28;20041;-89
2022/09/15 06:58:43;;;;;;;0.40;0.22;;;14.80;99.90;;;;;;4998246;28;20045;-88
2022/09/15 07:01:18;;;;;;;0.03;0.03;;;14.80;99.90;;;;;;4966465;28;20053;-88
2022/09/15 07:03:47;;;;;;;0.00;0.00;;;14.80;99.90;;;;;;4981612;28;20562;-88
2022/09/15 07:06:13;;;;;;;0.00;0.00;;;15.00;99.90;;;;;;4981608;28;20104;-88
2022/09/15 07:08:40;;;;;;;0.00;0.00;;;15.30;99.90;;;;;;4980906;28;20496;-88
2022/09/15 07:11:08;;;;;;;0.10;0.00;;;15.50;99.90;;;;;;4997911;28;20053;-88
2022/09/15 07:13:34;;;;;;;0.03;0.03;;;15.50;99.90;;;;;;4981158;28;20048;-89
2022/09/15 07:16:02;;;;;;;0.00;0.00;;;15.50;99.90;;;;;;4965548;28;20049;-88
2022/09/15 07:18:29;;;;;;;0.03;0.00;;;15.50;99.90;;;;;;4997733;28;20132;-89
2022/09/15 07:21:09;;;;;;;0.20;0.20;;;15.40;99.90;;;;;;5015147;28;20056;-89
2022/09/15 07:23:38;;;;;;;0.10;0.00;;;15.40;99.90;;;;;;4981249;28;20488;-89
2022/09/15 07:26:11;;;;;;;0.38;0.10;;;15.30;99.90;;;;;;4981506;28;20104;-89
2022/09/15 07:28:38;;;;;;;0.00;0.00;;;15.30;99.90;;;;;;4997745;28;20049;-89
2022/09/15 07:31:08;;;;;;;0.00;0.00;;;15.20;99.90;;;;;;4981769;28;20057;-88
2022/09/15 07:33:34;;;;;;;0.08;0.08;;;15.20;99.90;;;;;;4964748;28;20050;-88
2022/09/15 07:36:01;;;;;;;;;;;15.20;99.90;;;;;;4982145;28;20148;-88
2022/09/15 07:38:30;;;;;;;0.00;0.00;;;15.20;99.90;;;;;;4996534;28;19921;-89
2022/09/15 07:41:27;;;;;;;0.00;0.00;;;15.10;99.90;;;;;;4997422;28;20053;-89
2022/09/15 07:43:55;;;;;;;0.28;0.17;;;15.20;99.90;;;;;;4981421;28;20436;-89
2022/09/15 07:46:22;;;;;;;0.00;0.00;;;15.20;99.90;;;;;;4997185;28;20133;-88
2022/09/15 07:48:55;;;;;;;1.30;0.00;;;15.30;99.90;;;;;;4980836;28;20478;-88
2022/09/15 07:51:22;;;;;;;0.00;0.00;;;15.40;99.90;;;;;;4965513;28;20049;-89
2022/09/15 07:53:47;;;;;;;0.00;0.00;;;15.40;99.90;;;;;;4996471;28;20046;-89
2022/09/15 07:56:17;;;;;;;0.10;0.10;;;15.50;99.90;;;;;;4997282;28;20054;-89
2022/09/15 07:58:43;;;;;;;0.00;0.00;;;15.50;99.90;;;;;;4997006;28;20057;-89
2022/09/15 08:01:10;;;;;;;0.00;0.00;;;15.60;99.90;;;;;;4998277;28;20046;-89
2022/09/15 08:03:44;;;;;;;0.00;0.00;;;15.60;99.90;;;;;;4996783;28;20045;-89
2022/09/15 08:06:10;;;;;;;1.48;0.03;;;15.70;99.90;;;;;;4997681;28;20392;-89
2022/09/15 08:08:40;;;;;;;0.00;0.00;;;15.70;99.90;;;;;;4997450;28;20074;-89
2022/09/15 08:11:12;;;;;;;0.00;0.00;;;15.70;99.90;;;;;;4982084;28;20131;-88
2022/09/15 08:13:37;;;;;;;0.00;0.00;;;15.70;99.90;;;;;;4997308;28;20049;-89
2022/09/15 08:16:05;;;;;;;0.43;0.20;;;15.80;99.90;;;;;;4966034;28;20042;-89
2022/09/15 08:18:32;;;;;;;0.00;0.00;;;15.70;99.90;;;;;;4996434;28;20092;-89
2022/09/15 08:20:57;;;;;;;0.00;0.00;;;15.70;99.90;;;;;;4980447;28;20481;-89
2022/09/15 08:23:23;;;;;;;0.00;0.00;;;15.70;99.90;;;;;;4996458;28;20077;-88
2022/09/15 08:25:50;;;;;;;0.07;0.00;;;15.80;99.90;;;;;;4996281;28;20085;-88
2022/09/15 08:28:16;;;;;;;0.00;0.00;;;15.80;99.90;;;;;;4996466;28;20289;-89
2022/09/15 08:30:42;;;;;;;0.00;0.00;;;15.80;99.90;;;;;;4996060;28;20443;-89
2022/09/15 08:33:07;;;;;;;0.93;0.00;;;15.80;99.90;;;;;;4980111;28;20128;-89
2022/09/15 08:35:33;;;;;;;0.00;0.00;;;15.80;99.90;;;;;;4979957;28;20049;-90
2022/09/15 08:37:59;;;;;;;0.00;0.00;;;15.80;99.90;;;;;;4964339;28;20595;-89
2022/09/15 08:40:34;;;;;;;0.00;0.00;;;15.90;99.90;;;;;;4996447;28;20128;-89
2022/09/15 08:43:07;;;;;;;0.00;0.00;;;16.00;99.90;;;;;;4980182;28;20088;-89
2022/09/15 08:45:50;;;;;;;0.00;0.00;;;16.20;99.90;;;;;;5013474;28;20058;-90
2022/09/15 08:48:20;;;;;;;0.00;0.00;;;16.30;99.90;;;;;;4995707;28;20053;-89
2022/09/15 08:50:48;;;;;;;0.00;0.00;;;16.60;99.90;;;;;;5012903;28;20550;-90
2022/09/15 08:53:31;;;;;;;0.00;0.00;;;16.70;99.90;;;;;;4995855;28;20041;-90
2022/09/15 08:56:03;;;;;;;0.00;0.00;;;16.90;99.90;;;;;;4995819;28;20431;-89
2022/09/15 08:58:33;;;;;;;0.00;0.00;;;17.00;99.90;;;;;;4995852;28;20116;-89
2022/09/15 09:01:25;;;;;;;0.00;0.00;;;17.10;99.90;;;;;;4996083;28;20058;-89
2022/09/15 09:04:12;;;;;;;0.00;0.00;;;17.20;99.90;;;;;;4995563;28;20053;-89
2022/09/15 09:06:44;;;;;;;0.00;0.00;;;17.30;99.90;;;;;;4979260;28;20500;-90
2022/09/15 09:09:37;;;;;;;0.00;0.00;;;17.50;99.90;;;;;;4979366;28;20112;-90
2022/09/15 09:12:14;;;;;;;0.00;0.00;;;17.50;99.90;;;;;;4968943;28;20058;-90
2022/09/15 09:15:18;;;;;;;0.00;0.00;;;17.50;99.90;;;;;;4979293;28;20089;-90
2022/09/15 09:18:17;;;;;;;0.08;0.08;;;17.40;99.90;;;;;;5012772;28;20078;-90
2022/09/15 09:21:05;;;;;;;0.08;0.08;;;17.30;99.90;;;;;;4979240;28;20053;-90
2022/09/15 09:23:35;;;;;;;0.00;0.00;;;17.20;99.90;;;;;;4979560;28;20136;-89
2022/09/15 09:26:01;;;;;;;1.55;0.45;;;17.10;99.90;;;;;;4979238;28;20052;-89
2022/09/15 09:28:34;;;;;;;0.10;0.10;;;17.00;99.90;;;;;;4979461;28;20049;-89
2022/09/15 09:31:06;;;;;;;0.00;0.00;;;17.00;99.90;;;;;;4996010;28;20050;-90
2022/09/15 09:33:39;;;;;;;0.00;0.00;;;16.90;99.90;;;;;;4981434;28;20057;-90
2022/09/15 09:36:07;;;;;;;0.00;0.00;;;17.00;99.90;;;;;;4979629;28;20053;-90
2022/09/15 09:38:40;;;;;;;0.00;0.00;;;17.00;99.90;;;;;;4981792;28;20061;-89
2022/09/15 09:41:12;;;;;;;0.00;0.00;;;17.00;99.90;;;;;;4995904;28;20058;-90
2022/09/15 09:43:39;;;;;;;0.00;0.00;;;17.00;99.90;;;;;;4995163;28;20412;-89
2022/09/15 09:46:23;;;;;;;0.35;0.03;;;17.00;99.90;;;;;;4995672;28;20108;-90
2022/09/15 09:49:10;;;;;;;0.00;0.00;;;17.00;99.90;;;;;;4979209;28;20413;-90
2022/09/15 09:51:46;;;;;;;0.10;0.03;;;17.00;99.90;;;;;;4979359;28;20428;-89
2022/09/15 09:54:15;;;;;;;0.00;0.00;;;17.30;99.90;;;;;;4979390;28;20104;-89
2022/09/15 09:56:44;;;;;;;0.00;0.00;;;17.60;99.90;;;;;;4963019;28;20060;-91
2022/09/15 09:59:30;;;;;;;0.00;0.00;;;17.80;99.90;;;;;;4979466;28;20049;-90
2022/09/15 10:02:11;;;;;;;0.00;0.00;;;17.90;99.90;;;;;;4981038;28;20053;-90
2022/09/15 10:04:38;;;;;;;0.00;0.00;;;17.80;99.90;;;;;;4996518;28;20519;-90
2022/09/15 10:07:05;;;;;;;0.73;0.08;;;17.70;99.90;;;;;;4995252;28;20049;-90
2022/09/15 10:09:31;;;;;;;0.15;0.15;;;17.60;99.90;;;;;;4995867;28;20403;-89
2022/09/15 10:12:00;;;;;;;0.00;0.00;;;17.50;99.90;;;;;;4995617;28;20041;-90
2022/09/15 10:14:40;;;;;;;0.00;0.00;;;17.50;99.90;;;;;;4979429;28;20057;-90
2022/09/15 10:17:12;;;;;;;0.00;0.00;;;17.50;99.90;;;;;;4978971;28;20108;-90
2022/09/15 10:19:49;;;;;;;0.00;0.00;;;17.60;99.90;;;;;;4979222;28;20161;-90
2022/09/15 10:22:29;;;;;;;0.00;0.00;;;17.50;99.90;;;;;;4979382;28;20092;-89
2022/09/15 10:24:57;;;;;;;0.30;0.30;;;17.50;99.90;;;;;;4979172;28;20056;-90
2022/09/15 10:27:34;;;;;;;0.10;0.10;;;17.40;99.90;;;;;;5012417;28;20138;-90
2022/09/15 10:30:29;;;;;;;0.00;0.00;;;17.30;99.90;;;;;;4994593;28;20056;-89
2022/09/15 10:33:16;;;;;;;0.00;0.00;;;17.10;99.90;;;;;;4965918;28;20061;-89
2022/09/15 10:35:42;;;;;;;0.05;0.05;;;17.00;99.90;;;;;;4995146;28;20046;-89
2022/09/15 10:38:11;;;;;;;0.00;0.00;;;16.90;99.90;;;;;;4978583;28;20446;-90
2022/09/15 10:40:56;;;;;;;0.00;0.00;;;16.90;99.90;;;;;;4995726;28;20103;-90
2022/09/15 10:43:34;;;;;;;0.00;0.00;;;16.90;99.90;;;;;;4998552;28;20049;-88
2022/09/15 10:46:15;;;;;;;0.00;0.00;;;17.10;99.90;;;;;;4982179;28;20065;-89
2022/09/15 10:48:59;;;;;;;0.00;0.00;;;17.30;99.90;;;;;;4999481;28;20149;-90
2022/09/15 10:51:45;;;;;;;0.10;0.00;;;17.50;99.90;;;;;;4998776;28;20141;-90
2022/09/15 10:54:10;;;;;;;0.00;0.00;;;17.80;99.90;;;;;;5015757;28;20046;-90
2022/09/15 10:56:41;;;;;;;0.00;0.00;;;18.10;99.90;;;;;;4998624;28;20535;-90
2022/09/15 10:59:25;;;;;;;0.35;0.35;;;18.20;99.90;;;;;;4981699;28;20383;-90
2022/09/15 11:02:39;;;;;;;0.00;0.00;;;18.40;99.90;;;;;;4997952;28;20050;-91
2022/09/15 11:05:26;;;;;;;0.10;0.10;;;18.50;99.90;;;;;;4976226;28;20054;-90
2022/09/15 11:08:19;;;;;;;0.00;0.00;;;18.60;99.90;;;;;;4981572;28;20042;-91
2022/09/15 11:10:49;;;;;;;0.10;0.10;;;18.70;99.90;;;;;;4998165;28;20109;-90
2022/09/15 11:13:55;;;;;;;0.00;0.00;;;18.80;99.90;;;;;;4998080;28;20081;-93
2022/09/15 11:16:37;;;;;;;0.00;0.00;;;18.40;99.90;;;;;;4982613;28;20042;-93
2022/09/15 11:19:36;;;;;;;0.10;0.05;;;17.90;99.90;;;;;;4981222;28;20111;-92
2022/09/15 11:22:06;;;;;;;0.10;0.10;;;17.40;99.90;;;;;;4978712;28;20050;-91
2022/09/15 11:24:37;;;;;;;0.00;0.00;;;17.10;99.90;;;;;;4969754;28;20038;-90
2022/09/15 11:27:22;;;;;;;0.00;0.00;;;17.00;99.90;;;;;;4986248;28;20088;-84
2022/09/15 11:30:19;;;;;;;0.20;0.17;;;16.90;99.90;;;;;;4968703;28;20473;-87
2022/09/15 11:33:21;;;;;;;0.00;0.00;;;16.90;99.90;;;;;;4983669;28;20038;-85
2022/09/15 11:35:55;;;;;;;0.00;0.00;;;17.00;99.90;;;;;;4962433;28;20382;-90
2022/09/15 11:38:39;;;;;;;0.10;0.10;;;17.20;99.90;;;;;;4981565;28;20037;-89
2022/09/15 11:41:19;;;;;;;0.00;0.00;;;17.40;99.90;;;;;;4984907;28;20061;-86
2022/09/15 11:44:00;;;;;;;0.00;0.00;;;17.70;99.90;;;;;;4976604;28;20061;-85
2022/09/15 11:46:56;;;;;;;0.03;0.03;;;17.90;99.90;;;;;;4983582;28;20054;-89
2022/09/15 11:49:39;;;;;;;0.00;0.00;;;18.20;99.90;;;;;;4983082;28;20041;-88
2022/09/15 11:52:11;;;;;;;0.00;0.00;;;18.50;99.90;;;;;;4975309;28;20346;-87
2022/09/15 11:54:55;;;;;;;0.00;0.00;;;18.60;99.90;;;;;;4976256;28;20400;-89
2022/09/15 11:57:27;;;;;;;0.00;0.00;;;18.50;99.90;;;;;;4984302;28;20064;-87
2022/09/15 12:00:09;;;;;;;0.00;0.00;;;18.40;99.90;;;;;;4981885;28;20158;-94
2022/09/15 12:02:50;;;;;;;0.00;0.00;;;18.40;99.90;;;;;;4978525;28;20053;-86
2022/09/15 12:05:25;;;;;;;0.10;0.10;;;18.40;99.90;;;;;;4975279;28;20038;-86
2022/09/15 12:08:01;;;;;;;0.08;0.08;;;18.40;99.90;;;;;;4984703;28;20046;-89
2022/09/15 12:10:44;;;;;;;0.00;0.00;;;18.30;99.90;;;;;;4984938;28;20080;-86
2022/09/15 12:13:19;;;;;;;1.15;0.00;;;18.30;99.90;;;;;;4976683;28;20157;-87
2022/09/15 12:15:46;;;;;;;0.00;0.00;;;18.30;99.90;;;;;;4981664;28;20042;-87
2022/09/15 12:18:22;;;;;;;0.00;0.00;;;18.50;99.90;;;;;;4992184;28;20505;-86
2022/09/15 12:20:55;;;;;;;0.00;0.00;;;18.50;99.90;;;;;;4990153;28;20436;-87
2022/09/15 12:23:55;;;;;;;0.00;0.00;;;18.50;99.90;;;;;;4986635;28;20331;-86
2022/09/15 12:26:25;;;;;;;0.00;0.00;;;18.50;99.90;;;;;;4998416;28;20497;-87
2022/09/15 12:29:04;;;;;;;0.00;0.00;;;18.40;99.90;;;;;;4994610;28;20054;-89
2022/09/15 12:31:31;;;;;;;0.00;0.00;;;18.40;99.90;;;;;;4987245;28;20073;-86
2022/09/15 12:34:25;;;;;;;0.00;0.00;;;18.40;99.90;;;;;;4978087;28;20042;-87
2022/09/15 12:37:06;;;;;;;0.00;0.00;;;18.40;99.90;;;;;;4960196;28;20137;-88
2022/09/15 12:39:36;;;;;;;0.10;0.10;;;18.40;99.90;;;;;;4958164;28;20121;-88
2022/09/15 12:42:09;;;;;;;0.30;0.30;;;18.30;99.90;;;;;;4975627;28;20052;-92
2022/09/15 12:45:06;;;;;;;0.00;0.00;;;18.30;99.90;;;;;;4932619;28;1132801;-87
2022/09/15 12:47:49;;;;;;;0.00;0.00;;;18.30;99.90;;;;;;4975709;28;20734;-85
2022/09/15 12:50:14;;;;;;;0.10;0.00;;;18.30;99.90;;;;;;4992606;28;20042;-86
2022/09/15 12:52:50;;;;;;;0.00;0.00;;;18.50;99.90;;;;;;4960726;28;20068;-85
2022/09/15 12:55:26;;;;;;;0.00;0.00;;;18.80;99.90;;;;;;4993813;28;20336;-84
2022/09/15 12:57:55;;;;;;;0.13;0.10;;;19.10;99.90;;;;;;4976967;28;20414;-85
2022/09/15 13:00:31;;;;;;;0.05;0.05;;;19.50;99.90;;;;;;4960994;28;20085;-85
2022/09/15 13:02:57;;;;;;;0.20;0.20;;;19.80;99.90;;;;;;4961520;28;20109;-88
2022/09/15 13:05:41;;;;;;;0.10;0.10;;;19.70;99.90;;;;;;4995310;28;20432;-90
2022/09/15 13:08:14;;;;;;;0.00;0.00;;;19.50;99.90;;;;;;4980534;28;20057;-93
2022/09/15 13:14:48;;;;;;;0.00;0.00;;;18.90;99.90;;;;;;4993536;28;20073;-90
2022/09/15 13:17:24;;;;;;;0.20;0.10;;;18.50;99.90;;;;;;4971296;28;20117;-95
2022/09/15 13:19:58;;;;;;;0.00;0.00;;;18.00;99.90;;;;;;4995866;28;20053;-94